Terminal Aerodrome Forecast
Issued by NWS

Home | Current Version | Previous Version | Text Only | Print | Product List | Glossary On
Versions: 1 2 3 4 5 6 7 8 9 10 11 12 13 14 15
000
FTAK31 PAJN 291126
TAFAYA
TAF
PAYA 291126Z 2912/3012 04005KT P6SM -SHRA OVC040
     FM291600 09005KT P6SM BKN040 BKN060
     FM292300 12007KT P6SM VCSH SCT025 OVC050
     FM300900 07005KT P6SM -SHRA BKN025 OVC040=

USA.gov is the U.S. government's official web portal to all federal, state and local government web resources and services.